sensor_id;sensor_type;location;lat;lon;timestamp;P1;durP1;ratioP1;P2;durP2;ratioP2
70592;SDS011;58294;42.988;20.338;2023-06-24T00:02:17;30.30;;;8.30;;
70592;SDS011;58294;42.988;20.338;2023-06-24T00:04:43;16.75;;;7.95;;
70592;SDS011;58294;42.988;20.338;2023-06-24T00:07:09;17.38;;;8.15;;
70592;SDS011;58294;42.988;20.338;2023-06-24T00:09:35;17.15;;;7.70;;
70592;SDS011;58294;42.988;20.338;2023-06-24T00:12:01;17.63;;;7.32;;
70592;SDS011;58294;42.988;20.338;2023-06-24T00:14:27;23.67;;;8.23;;
70592;SDS011;58294;42.988;20.338;2023-06-24T00:16:54;24.23;;;8.65;;
70592;SDS011;58294;42.988;20.338;2023-06-24T00:19:25;18.65;;;7.22;;
70592;SDS011;58294;42.988;20.338;2023-06-24T00:21:52;13.35;;;6.88;;
70592;SDS011;58294;42.988;20.338;2023-06-24T00:24:21;10.05;;;5.90;;
70592;SDS011;58294;42.988;20.338;2023-06-24T00:26:54;12.30;;;5.63;;
70592;SDS011;58294;42.988;20.338;2023-06-24T00:29:20;13.43;;;6.72;;
70592;SDS011;58294;42.988;20.338;2023-06-24T00:31:46;10.73;;;5.75;;
70592;SDS011;58294;42.988;20.338;2023-06-24T00:34:12;18.83;;;6.70;;
70592;SDS011;58294;42.988;20.338;2023-06-24T00:36:39;15.25;;;6.65;;
70592;SDS011;58294;42.988;20.338;2023-06-24T00:39:05;16.35;;;6.70;;
70592;SDS011;58294;42.988;20.338;2023-06-24T00:41:31;17.85;;;8.13;;
70592;SDS011;58294;42.988;20.338;2023-06-24T00:43:58;14.10;;;7.35;;
70592;SDS011;58294;42.988;20.338;2023-06-24T00:46:25;12.38;;;6.78;;
70592;SDS011;58294;42.988;20.338;2023-06-24T00:48:52;13.68;;;7.25;;
70592;SDS011;58294;42.988;20.338;2023-06-24T00:51:19;23.35;;;7.78;;
70592;SDS011;58294;42.988;20.338;2023-06-24T00:53:54;16.48;;;6.97;;
70592;SDS011;58294;42.988;20.338;2023-06-24T00:56:25;15.63;;;8.20;;
70592;SDS011;58294;42.988;20.338;2023-06-24T00:59:12;19.70;;;7.38;;
70592;SDS011;58294;42.988;20.338;2023-06-24T01:01:40;13.07;;;5.70;;
70592;SDS011;58294;42.988;20.338;2023-06-24T01:04:06;18.58;;;7.70;;
70592;SDS011;58294;42.988;20.338;2023-06-24T01:06:34;13.02;;;7.22;;
70592;SDS011;58294;42.988;20.338;2023-06-24T01:09:01;14.57;;;7.20;;
70592;SDS011;58294;42.988;20.338;2023-06-24T01:11:28;14.27;;;6.53;;
70592;SDS011;58294;42.988;20.338;2023-06-24T01:13:55;18.83;;;7.20;;
70592;SDS011;58294;42.988;20.338;2023-06-24T01:16:32;15.30;;;6.15;;
70592;SDS011;58294;42.988;20.338;2023-06-24T01:25:07;16.75;;;6.72;;
70592;SDS011;58294;42.988;20.338;2023-06-24T01:33:23;11.80;;;6.35;;
70592;SDS011;58294;42.988;20.338;2023-06-24T01:35:57;15.98;;;7.03;;
70592;SDS011;58294;42.988;20.338;2023-06-24T01:38:27;11.73;;;6.05;;
70592;SDS011;58294;42.988;20.338;2023-06-24T01:41:00;12.45;;;6.05;;
70592;SDS011;58294;42.988;20.338;2023-06-24T01:43:29;15.13;;;6.50;;
70592;SDS011;58294;42.988;20.338;2023-06-24T01:45:57;22.02;;;6.13;;
70592;SDS011;58294;42.988;20.338;2023-06-24T01:51:06;15.52;;;6.70;;
70592;SDS011;58294;42.988;20.338;2023-06-24T01:53:36;17.25;;;7.38;;
70592;SDS011;58294;42.988;20.338;2023-06-24T01:56:07;12.70;;;5.72;;
70592;SDS011;58294;42.988;20.338;2023-06-24T01:58:37;12.68;;;6.30;;
70592;SDS011;58294;42.988;20.338;2023-06-24T02:01:05;15.13;;;7.18;;
70592;SDS011;58294;42.988;20.338;2023-06-24T02:03:32;16.05;;;6.97;;
70592;SDS011;58294;42.988;20.338;2023-06-24T02:05:59;14.85;;;6.07;;
70592;SDS011;58294;42.988;20.338;2023-06-24T02:08:29;13.43;;;6.25;;
70592;SDS011;58294;42.988;20.338;2023-06-24T02:10:59;15.07;;;6.25;;
70592;SDS011;58294;42.988;20.338;2023-06-24T02:13:27;16.75;;;6.15;;
70592;SDS011;58294;42.988;20.338;2023-06-24T02:15:56;16.33;;;5.80;;
70592;SDS011;58294;42.988;20.338;2023-06-24T02:18:24;16.60;;;6.90;;
70592;SDS011;58294;42.988;20.338;2023-06-24T02:20:52;12.32;;;6.57;;
70592;SDS011;58294;42.988;20.338;2023-06-24T02:23:19;15.88;;;6.85;;
70592;SDS011;58294;42.988;20.338;2023-06-24T02:25:46;18.25;;;6.22;;
70592;SDS011;58294;42.988;20.338;2023-06-24T02:28:13;14.93;;;7.32;;
70592;SDS011;58294;42.988;20.338;2023-06-24T02:30:40;17.20;;;6.80;;
70592;SDS011;58294;42.988;20.338;2023-06-24T02:33:07;13.60;;;7.32;;
70592;SDS011;58294;42.988;20.338;2023-06-24T02:35:34;15.65;;;6.78;;
70592;SDS011;58294;42.988;20.338;2023-06-24T02:38:00;12.15;;;6.32;;
70592;SDS011;58294;42.988;20.338;2023-06-24T02:40:26;13.80;;;6.15;;
70592;SDS011;58294;42.988;20.338;2023-06-24T02:42:52;14.43;;;6.47;;
70592;SDS011;58294;42.988;20.338;2023-06-24T02:45:18;18.00;;;7.05;;
70592;SDS011;58294;42.988;20.338;2023-06-24T02:47:44;16.70;;;7.53;;
70592;SDS011;58294;42.988;20.338;2023-06-24T02:50:12;15.55;;;6.63;;
70592;SDS011;58294;42.988;20.338;2023-06-24T02:52:39;13.30;;;6.10;;
70592;SDS011;58294;42.988;20.338;2023-06-24T02:55:06;13.52;;;6.38;;
70592;SDS011;58294;42.988;20.338;2023-06-24T02:57:33;14.20;;;6.60;;
70592;SDS011;58294;42.988;20.338;2023-06-24T03:00:04;11.95;;;5.88;;
70592;SDS011;58294;42.988;20.338;2023-06-24T03:02:34;16.90;;;6.72;;
70592;SDS011;58294;42.988;20.338;2023-06-24T03:05:00;23.35;;;7.03;;
70592;SDS011;58294;42.988;20.338;2023-06-24T03:07:27;14.45;;;6.80;;
70592;SDS011;58294;42.988;20.338;2023-06-24T03:09:55;13.25;;;5.97;;
70592;SDS011;58294;42.988;20.338;2023-06-24T03:12:21;16.70;;;7.20;;
70592;SDS011;58294;42.988;20.338;2023-06-24T03:14:46;18.20;;;7.03;;
70592;SDS011;58294;42.988;20.338;2023-06-24T03:17:12;14.25;;;6.55;;
70592;SDS011;58294;42.988;20.338;2023-06-24T03:19:38;12.80;;;6.70;;
70592;SDS011;58294;42.988;20.338;2023-06-24T03:22:04;20.35;;;6.97;;
70592;SDS011;58294;42.988;20.338;2023-06-24T03:24:30;10.90;;;6.55;;
70592;SDS011;58294;42.988;20.338;2023-06-24T03:26:56;16.55;;;7.28;;
70592;SDS011;58294;42.988;20.338;2023-06-24T03:29:22;11.25;;;7.43;;
70592;SDS011;58294;42.988;20.338;2023-06-24T03:31:48;15.43;;;6.97;;
70592;SDS011;58294;42.988;20.338;2023-06-24T03:34:15;18.50;;;7.95;;
70592;SDS011;58294;42.988;20.338;2023-06-24T03:36:42;23.42;;;8.45;;
70592;SDS011;58294;42.988;20.338;2023-06-24T03:39:08;14.73;;;7.15;;
70592;SDS011;58294;42.988;20.338;2023-06-24T03:41:34;15.45;;;6.15;;
70592;SDS011;58294;42.988;20.338;2023-06-24T03:44:00;23.48;;;6.82;;
70592;SDS011;58294;42.988;20.338;2023-06-24T03:46:26;16.17;;;6.65;;
70592;SDS011;58294;42.988;20.338;2023-06-24T03:48:53;13.40;;;6.20;;
70592;SDS011;58294;42.988;20.338;2023-06-24T03:51:19;28.55;;;9.10;;
70592;SDS011;58294;42.988;20.338;2023-06-24T03:53:45;13.43;;;7.63;;
70592;SDS011;58294;42.988;20.338;2023-06-24T03:56:11;11.80;;;6.75;;
70592;SDS011;58294;42.988;20.338;2023-06-24T03:58:36;24.08;;;8.88;;
70592;SDS011;58294;42.988;20.338;2023-06-24T04:01:02;18.67;;;7.85;;
70592;SDS011;58294;42.988;20.338;2023-06-24T04:03:28;17.45;;;7.35;;
70592;SDS011;58294;42.988;20.338;2023-06-24T04:05:55;14.85;;;7.53;;
70592;SDS011;58294;42.988;20.338;2023-06-24T04:08:21;13.15;;;7.35;;
70592;SDS011;58294;42.988;20.338;2023-06-24T04:10:47;17.27;;;7.18;;
70592;SDS011;58294;42.988;20.338;2023-06-24T04:13:13;16.85;;;6.75;;
70592;SDS011;58294;42.988;20.338;2023-06-24T04:15:39;26.75;;;9.57;;
70592;SDS011;58294;42.988;20.338;2023-06-24T04:18:05;18.73;;;6.95;;
70592;SDS011;58294;42.988;20.338;2023-06-24T04:20:31;20.30;;;7.93;;
70592;SDS011;58294;42.988;20.338;2023-06-24T04:22:57;12.48;;;6.65;;
70592;SDS011;58294;42.988;20.338;2023-06-24T04:25:24;13.20;;;6.95;;
70592;SDS011;58294;42.988;20.338;2023-06-24T04:27:50;19.02;;;6.90;;
70592;SDS011;58294;42.988;20.338;2023-06-24T04:30:16;16.58;;;6.78;;
70592;SDS011;58294;42.988;20.338;2023-06-24T04:32:41;19.23;;;7.13;;
70592;SDS011;58294;42.988;20.338;2023-06-24T04:35:07;15.07;;;6.05;;
70592;SDS011;58294;42.988;20.338;2023-06-24T04:37:33;12.70;;;6.32;;
70592;SDS011;58294;42.988;20.338;2023-06-24T04:39:59;13.68;;;7.13;;
70592;SDS011;58294;42.988;20.338;2023-06-24T04:42:25;19.17;;;7.25;;
70592;SDS011;58294;42.988;20.338;2023-06-24T04:44:51;21.48;;;7.70;;
70592;SDS011;58294;42.988;20.338;2023-06-24T04:47:17;12.65;;;6.45;;
70592;SDS011;58294;42.988;20.338;2023-06-24T04:49:43;19.58;;;7.53;;
70592;SDS011;58294;42.988;20.338;2023-06-24T04:52:10;20.83;;;9.15;;
70592;SDS011;58294;42.988;20.338;2023-06-24T04:54:37;17.95;;;7.50;;
70592;SDS011;58294;42.988;20.338;2023-06-24T04:57:05;17.00;;;8.60;;
70592;SDS011;58294;42.988;20.338;2023-06-24T04:59:34;21.92;;;8.90;;
70592;SDS011;58294;42.988;20.338;2023-06-24T05:02:00;17.98;;;8.30;;
70592;SDS011;58294;42.988;20.338;2023-06-24T05:04:25;24.17;;;8.52;;
70592;SDS011;58294;42.988;20.338;2023-06-24T05:06:52;15.40;;;8.05;;
70592;SDS011;58294;42.988;20.338;2023-06-24T05:09:18;19.95;;;8.80;;
70592;SDS011;58294;42.988;20.338;2023-06-24T05:11:43;19.27;;;9.18;;
70592;SDS011;58294;42.988;20.338;2023-06-24T05:14:09;15.20;;;7.30;;
70592;SDS011;58294;42.988;20.338;2023-06-24T05:16:35;20.00;;;8.40;;
70592;SDS011;58294;42.988;20.338;2023-06-24T05:19:01;22.73;;;8.85;;
70592;SDS011;58294;42.988;20.338;2023-06-24T05:21:27;17.60;;;8.05;;
70592;SDS011;58294;42.988;20.338;2023-06-24T05:23:53;16.55;;;7.97;;
70592;SDS011;58294;42.988;20.338;2023-06-24T05:26:18;20.30;;;8.32;;
70592;SDS011;58294;42.988;20.338;2023-06-24T05:28:44;22.45;;;8.23;;
70592;SDS011;58294;42.988;20.338;2023-06-24T05:31:10;13.48;;;7.72;;
70592;SDS011;58294;42.988;20.338;2023-06-24T05:33:36;17.60;;;7.30;;
70592;SDS011;58294;42.988;20.338;2023-06-24T05:36:01;22.55;;;8.07;;
70592;SDS011;58294;42.988;20.338;2023-06-24T05:38:27;19.63;;;9.20;;
70592;SDS011;58294;42.988;20.338;2023-06-24T05:40:53;26.40;;;14.00;;
70592;SDS011;58294;42.988;20.338;2023-06-24T05:43:19;21.23;;;12.40;;
70592;SDS011;58294;42.988;20.338;2023-06-24T05:45:44;28.92;;;11.65;;
70592;SDS011;58294;42.988;20.338;2023-06-24T05:48:10;23.02;;;12.00;;
70592;SDS011;58294;42.988;20.338;2023-06-24T05:50:36;24.92;;;12.50;;
70592;SDS011;58294;42.988;20.338;2023-06-24T05:53:02;21.27;;;12.02;;
70592;SDS011;58294;42.988;20.338;2023-06-24T05:55:28;24.42;;;9.73;;
70592;SDS011;58294;42.988;20.338;2023-06-24T05:57:53;19.45;;;10.02;;
70592;SDS011;58294;42.988;20.338;2023-06-24T06:00:19;17.90;;;8.90;;
70592;SDS011;58294;42.988;20.338;2023-06-24T06:02:45;31.33;;;11.77;;
70592;SDS011;58294;42.988;20.338;2023-06-24T06:05:11;34.47;;;10.15;;
70592;SDS011;58294;42.988;20.338;2023-06-24T06:07:37;30.10;;;10.55;;
70592;SDS011;58294;42.988;20.338;2023-06-24T06:10:05;20.90;;;9.40;;
70592;SDS011;58294;42.988;20.338;2023-06-24T06:12:31;16.30;;;8.30;;
70592;SDS011;58294;42.988;20.338;2023-06-24T06:14:57;16.40;;;8.45;;
70592;SDS011;58294;42.988;20.338;2023-06-24T06:17:23;15.88;;;7.68;;
70592;SDS011;58294;42.988;20.338;2023-06-24T06:19:49;24.83;;;8.10;;
70592;SDS011;58294;42.988;20.338;2023-06-24T06:22:15;14.52;;;7.40;;
70592;SDS011;58294;42.988;20.338;2023-06-24T06:24:41;12.80;;;7.90;;
70592;SDS011;58294;42.988;20.338;2023-06-24T06:27:10;16.17;;;8.82;;
70592;SDS011;58294;42.988;20.338;2023-06-24T06:29:36;17.73;;;8.23;;
70592;SDS011;58294;42.988;20.338;2023-06-24T06:32:02;28.13;;;9.65;;
70592;SDS011;58294;42.988;20.338;2023-06-24T06:34:29;15.57;;;8.68;;
70592;SDS011;58294;42.988;20.338;2023-06-24T06:36:55;24.13;;;9.38;;
70592;SDS011;58294;42.988;20.338;2023-06-24T06:39:21;16.13;;;10.23;;
70592;SDS011;58294;42.988;20.338;2023-06-24T06:41:47;18.88;;;8.90;;
70592;SDS011;58294;42.988;20.338;2023-06-24T06:44:12;18.85;;;9.35;;
70592;SDS011;58294;42.988;20.338;2023-06-24T06:46:38;21.38;;;9.80;;
70592;SDS011;58294;42.988;20.338;2023-06-24T06:49:04;22.98;;;8.35;;
70592;SDS011;58294;42.988;20.338;2023-06-24T06:51:30;17.85;;;8.77;;
70592;SDS011;58294;42.988;20.338;2023-06-24T06:53:56;17.15;;;8.98;;
70592;SDS011;58294;42.988;20.338;2023-06-24T06:56:22;20.35;;;10.45;;
70592;SDS011;58294;42.988;20.338;2023-06-24T06:58:49;15.68;;;10.02;;
70592;SDS011;58294;42.988;20.338;2023-06-24T07:01:15;14.98;;;9.50;;
70592;SDS011;58294;42.988;20.338;2023-06-24T07:03:42;22.83;;;9.77;;
70592;SDS011;58294;42.988;20.338;2023-06-24T07:06:09;15.63;;;8.43;;
70592;SDS011;58294;42.988;20.338;2023-06-24T07:08:34;17.17;;;8.68;;
70592;SDS011;58294;42.988;20.338;2023-06-24T07:11:01;25.23;;;10.70;;
70592;SDS011;58294;42.988;20.338;2023-06-24T07:13:27;18.67;;;8.68;;
70592;SDS011;58294;42.988;20.338;2023-06-24T07:15:53;25.42;;;9.60;;
70592;SDS011;58294;42.988;20.338;2023-06-24T07:18:19;17.40;;;8.18;;
70592;SDS011;58294;42.988;20.338;2023-06-24T07:20:45;19.05;;;8.70;;
70592;SDS011;58294;42.988;20.338;2023-06-24T07:23:11;20.35;;;8.88;;
70592;SDS011;58294;42.988;20.338;2023-06-24T07:25:37;25.85;;;8.93;;
70592;SDS011;58294;42.988;20.338;2023-06-24T07:28:03;16.02;;;8.75;;
70592;SDS011;58294;42.988;20.338;2023-06-24T07:30:29;16.58;;;8.27;;
70592;SDS011;58294;42.988;20.338;2023-06-24T07:32:55;20.27;;;8.98;;
70592;SDS011;58294;42.988;20.338;2023-06-24T07:35:21;22.25;;;10.02;;
70592;SDS011;58294;42.988;20.338;2023-06-24T07:37:47;27.02;;;10.07;;
70592;SDS011;58294;42.988;20.338;2023-06-24T07:40:13;26.35;;;10.13;;
70592;SDS011;58294;42.988;20.338;2023-06-24T07:42:40;27.02;;;11.52;;
70592;SDS011;58294;42.988;20.338;2023-06-24T07:45:06;29.50;;;9.73;;
70592;SDS011;58294;42.988;20.338;2023-06-24T07:47:32;24.70;;;12.15;;
70592;SDS011;58294;42.988;20.338;2023-06-24T07:49:58;24.52;;;12.20;;
70592;SDS011;58294;42.988;20.338;2023-06-24T07:52:24;33.45;;;17.70;;
70592;SDS011;58294;42.988;20.338;2023-06-24T07:54:50;31.83;;;16.15;;
70592;SDS011;58294;42.988;20.338;2023-06-24T07:57:15;33.75;;;14.27;;
70592;SDS011;58294;42.988;20.338;2023-06-24T07:59:42;31.55;;;14.48;;
70592;SDS011;58294;42.988;20.338;2023-06-24T08:02:08;26.90;;;14.65;;
70592;SDS011;58294;42.988;20.338;2023-06-24T08:04:34;24.58;;;12.15;;
70592;SDS011;58294;42.988;20.338;2023-06-24T08:06:59;36.00;;;15.52;;
70592;SDS011;58294;42.988;20.338;2023-06-24T08:09:25;24.63;;;12.68;;
70592;SDS011;58294;42.988;20.338;2023-06-24T08:11:51;25.63;;;13.68;;
70592;SDS011;58294;42.988;20.338;2023-06-24T08:14:17;33.95;;;14.25;;
70592;SDS011;58294;42.988;20.338;2023-06-24T08:16:43;21.92;;;13.13;;
70592;SDS011;58294;42.988;20.338;2023-06-24T08:19:09;26.67;;;13.63;;
70592;SDS011;58294;42.988;20.338;2023-06-24T08:21:35;22.02;;;13.55;;
70592;SDS011;58294;42.988;20.338;2023-06-24T08:24:02;25.65;;;14.55;;
70592;SDS011;58294;42.988;20.338;2023-06-24T08:26:29;26.98;;;18.73;;
70592;SDS011;58294;42.988;20.338;2023-06-24T08:28:56;23.30;;;14.38;;
70592;SDS011;58294;42.988;20.338;2023-06-24T08:31:23;25.15;;;12.80;;
70592;SDS011;58294;42.988;20.338;2023-06-24T08:33:51;29.27;;;12.52;;
70592;SDS011;58294;42.988;20.338;2023-06-24T08:36:21;27.52;;;13.45;;
70592;SDS011;58294;42.988;20.338;2023-06-24T08:38:48;30.15;;;16.05;;
70592;SDS011;58294;42.988;20.338;2023-06-24T08:41:14;26.90;;;16.70;;
70592;SDS011;58294;42.988;20.338;2023-06-24T08:43:40;31.42;;;17.38;;
70592;SDS011;58294;42.988;20.338;2023-06-24T08:46:08;48.42;;;29.02;;
70592;SDS011;58294;42.988;20.338;2023-06-24T08:48:34;44.03;;;28.70;;
70592;SDS011;58294;42.988;20.338;2023-06-24T08:51:05;40.08;;;27.10;;
70592;SDS011;58294;42.988;20.338;2023-06-24T08:53:33;32.25;;;20.20;;
70592;SDS011;58294;42.988;20.338;2023-06-24T08:56:01;30.35;;;19.27;;
70592;SDS011;58294;42.988;20.338;2023-06-24T08:58:27;30.02;;;18.25;;
70592;SDS011;58294;42.988;20.338;2023-06-24T09:00:53;31.70;;;17.08;;
70592;SDS011;58294;42.988;20.338;2023-06-24T09:03:19;30.40;;;16.33;;
70592;SDS011;58294;42.988;20.338;2023-06-24T09:05:45;17.90;;;12.20;;
70592;SDS011;58294;42.988;20.338;2023-06-24T09:08:10;25.80;;;14.15;;
70592;SDS011;58294;42.988;20.338;2023-06-24T09:10:37;30.77;;;14.10;;
70592;SDS011;58294;42.988;20.338;2023-06-24T09:13:04;26.85;;;14.23;;
70592;SDS011;58294;42.988;20.338;2023-06-24T09:15:39;13.50;;;9.95;;
70592;SDS011;58294;42.988;20.338;2023-06-24T09:18:05;16.40;;;12.15;;
70592;SDS011;58294;42.988;20.338;2023-06-24T09:20:31;20.52;;;13.20;;
70592;SDS011;58294;42.988;20.338;2023-06-24T09:23:04;28.77;;;14.10;;
70592;SDS011;58294;42.988;20.338;2023-06-24T09:25:30;30.10;;;12.48;;
70592;SDS011;58294;42.988;20.338;2023-06-24T09:28:00;16.55;;;11.23;;
70592;SDS011;58294;42.988;20.338;2023-06-24T09:30:26;20.27;;;9.52;;
70592;SDS011;58294;42.988;20.338;2023-06-24T09:32:53;15.98;;;9.10;;
70592;SDS011;58294;42.988;20.338;2023-06-24T09:35:20;16.30;;;9.02;;
70592;SDS011;58294;42.988;20.338;2023-06-24T09:40:21;19.75;;;10.32;;
70592;SDS011;58294;42.988;20.338;2023-06-24T09:42:57;21.42;;;9.35;;
70592;SDS011;58294;42.988;20.338;2023-06-24T09:45:29;17.48;;;9.82;;
70592;SDS011;58294;42.988;20.338;2023-06-24T09:47:55;15.48;;;9.55;;
70592;SDS011;58294;42.988;20.338;2023-06-24T09:50:25;18.95;;;10.88;;
70592;SDS011;58294;42.988;20.338;2023-06-24T09:52:51;22.08;;;10.68;;
70592;SDS011;58294;42.988;20.338;2023-06-24T09:55:18;17.70;;;10.77;;
70592;SDS011;58294;42.988;20.338;2023-06-24T09:57:45;20.83;;;10.25;;
70592;SDS011;58294;42.988;20.338;2023-06-24T10:00:16;21.75;;;10.38;;
70592;SDS011;58294;42.988;20.338;2023-06-24T10:02:44;16.77;;;10.20;;
70592;SDS011;58294;42.988;20.338;2023-06-24T10:05:12;16.88;;;9.85;;
70592;SDS011;58294;42.988;20.338;2023-06-24T10:07:39;19.17;;;10.95;;
70592;SDS011;58294;42.988;20.338;2023-06-24T10:10:05;18.35;;;10.32;;
70592;SDS011;58294;42.988;20.338;2023-06-24T10:12:32;22.75;;;10.50;;
70592;SDS011;58294;42.988;20.338;2023-06-24T10:15:02;16.33;;;10.15;;
70592;SDS011;58294;42.988;20.338;2023-06-24T10:17:29;20.27;;;11.20;;
70592;SDS011;58294;42.988;20.338;2023-06-24T10:19:55;17.85;;;10.52;;
70592;SDS011;58294;42.988;20.338;2023-06-24T10:22:21;21.92;;;11.20;;
70592;SDS011;58294;42.988;20.338;2023-06-24T10:24:49;20.02;;;10.80;;
70592;SDS011;58294;42.988;20.338;2023-06-24T10:27:23;23.80;;;10.40;;
70592;SDS011;58294;42.988;20.338;2023-06-24T10:29:50;21.40;;;10.93;;
70592;SDS011;58294;42.988;20.338;2023-06-24T10:32:17;18.02;;;11.25;;
70592;SDS011;58294;42.988;20.338;2023-06-24T10:34:44;22.38;;;11.40;;
70592;SDS011;58294;42.988;20.338;2023-06-24T10:37:25;20.70;;;12.70;;
70592;SDS011;58294;42.988;20.338;2023-06-24T10:39:58;24.85;;;12.10;;
70592;SDS011;58294;42.988;20.338;2023-06-24T10:44:55;25.45;;;12.25;;
70592;SDS011;58294;42.988;20.338;2023-06-24T10:47:26;23.58;;;14.90;;
70592;SDS011;58294;42.988;20.338;2023-06-24T10:49:53;24.90;;;14.55;;
70592;SDS011;58294;42.988;20.338;2023-06-24T10:52:19;29.17;;;17.20;;
70592;SDS011;58294;42.988;20.338;2023-06-24T10:54:46;30.00;;;22.05;;
70592;SDS011;58294;42.988;20.338;2023-06-24T10:57:13;22.65;;;14.40;;
70592;SDS011;58294;42.988;20.338;2023-06-24T10:59:46;20.60;;;12.38;;
70592;SDS011;58294;42.988;20.338;2023-06-24T11:02:14;19.42;;;14.50;;
70592;SDS011;58294;42.988;20.338;2023-06-24T11:04:45;18.50;;;13.32;;
70592;SDS011;58294;42.988;20.338;2023-06-24T11:07:11;24.90;;;13.63;;
70592;SDS011;58294;42.988;20.338;2023-06-24T11:09:37;22.30;;;12.73;;
70592;SDS011;58294;42.988;20.338;2023-06-24T11:12:05;23.63;;;12.60;;
70592;SDS011;58294;42.988;20.338;2023-06-24T11:14:35;19.00;;;11.88;;
70592;SDS011;58294;42.988;20.338;2023-06-24T11:17:01;18.85;;;11.63;;
70592;SDS011;58294;42.988;20.338;2023-06-24T11:19:29;29.75;;;15.80;;
70592;SDS011;58294;42.988;20.338;2023-06-24T11:22:02;26.30;;;12.25;;
70592;SDS011;58294;42.988;20.338;2023-06-24T11:24:28;21.30;;;11.68;;
70592;SDS011;58294;42.988;20.338;2023-06-24T11:26:54;18.55;;;10.82;;
70592;SDS011;58294;42.988;20.338;2023-06-24T11:29:21;21.20;;;12.38;;
70592;SDS011;58294;42.988;20.338;2023-06-24T11:31:48;22.98;;;12.23;;
70592;SDS011;58294;42.988;20.338;2023-06-24T11:34:14;23.05;;;11.50;;
70592;SDS011;58294;42.988;20.338;2023-06-24T11:36:40;20.13;;;11.77;;
70592;SDS011;58294;42.988;20.338;2023-06-24T11:39:06;19.48;;;11.20;;
70592;SDS011;58294;42.988;20.338;2023-06-24T11:41:32;23.45;;;11.82;;
70592;SDS011;58294;42.988;20.338;2023-06-24T11:43:58;15.77;;;11.35;;
70592;SDS011;58294;42.988;20.338;2023-06-24T11:46:25;21.70;;;11.02;;
70592;SDS011;58294;42.988;20.338;2023-06-24T11:48:52;18.45;;;11.57;;
70592;SDS011;58294;42.988;20.338;2023-06-24T11:51:30;17.08;;;11.07;;
70592;SDS011;58294;42.988;20.338;2023-06-24T11:53:59;20.48;;;11.95;;
70592;SDS011;58294;42.988;20.338;2023-06-24T11:56:36;18.55;;;10.68;;
70592;SDS011;58294;42.988;20.338;2023-06-24T11:59:06;24.05;;;11.40;;
70592;SDS011;58294;42.988;20.338;2023-06-24T12:01:32;18.63;;;11.32;;
70592;SDS011;58294;42.988;20.338;2023-06-24T12:04:09;21.27;;;11.80;;
70592;SDS011;58294;42.988;20.338;2023-06-24T12:06:35;17.52;;;9.38;;
70592;SDS011;58294;42.988;20.338;2023-06-24T12:09:01;15.45;;;9.30;;
70592;SDS011;58294;42.988;20.338;2023-06-24T12:11:27;19.05;;;12.48;;
70592;SDS011;58294;42.988;20.338;2023-06-24T12:13:53;17.50;;;10.90;;
70592;SDS011;58294;42.988;20.338;2023-06-24T12:16:18;23.90;;;12.82;;
70592;SDS011;58294;42.988;20.338;2023-06-24T12:18:44;16.95;;;9.93;;
70592;SDS011;58294;42.988;20.338;2023-06-24T12:21:10;19.00;;;11.50;;
70592;SDS011;58294;42.988;20.338;2023-06-24T12:23:36;20.67;;;11.45;;
70592;SDS011;58294;42.988;20.338;2023-06-24T12:26:02;22.10;;;11.00;;
70592;SDS011;58294;42.988;20.338;2023-06-24T12:28:27;14.18;;;9.10;;
70592;SDS011;58294;42.988;20.338;2023-06-24T12:30:53;16.73;;;9.23;;
70592;SDS011;58294;42.988;20.338;2023-06-24T12:33:19;16.02;;;10.45;;
70592;SDS011;58294;42.988;20.338;2023-06-24T12:35:46;17.70;;;10.63;;
70592;SDS011;58294;42.988;20.338;2023-06-24T12:38:11;38.63;;;12.70;;
70592;SDS011;58294;42.988;20.338;2023-06-24T12:40:37;20.00;;;10.18;;
70592;SDS011;58294;42.988;20.338;2023-06-24T12:43:04;26.40;;;10.80;;
70592;SDS011;58294;42.988;20.338;2023-06-24T12:45:29;21.02;;;11.52;;
70592;SDS011;58294;42.988;20.338;2023-06-24T12:47:55;21.20;;;11.30;;
70592;SDS011;58294;42.988;20.338;2023-06-24T12:50:21;21.63;;;14.25;;
70592;SDS011;58294;42.988;20.338;2023-06-24T12:52:47;22.10;;;15.70;;
70592;SDS011;58294;42.988;20.338;2023-06-24T12:55:13;26.38;;;16.73;;
70592;SDS011;58294;42.988;20.338;2023-06-24T12:57:39;26.60;;;16.65;;
70592;SDS011;58294;42.988;20.338;2023-06-24T13:00:04;24.23;;;15.43;;
70592;SDS011;58294;42.988;20.338;2023-06-24T13:02:31;23.42;;;15.43;;
70592;SDS011;58294;42.988;20.338;2023-06-24T13:04:56;25.88;;;15.85;;
70592;SDS011;58294;42.988;20.338;2023-06-24T13:07:23;22.52;;;15.70;;
70592;SDS011;58294;42.988;20.338;2023-06-24T13:09:48;21.13;;;14.70;;
70592;SDS011;58294;42.988;20.338;2023-06-24T13:12:14;28.30;;;16.38;;
70592;SDS011;58294;42.988;20.338;2023-06-24T13:14:40;31.15;;;17.20;;
70592;SDS011;58294;42.988;20.338;2023-06-24T13:17:06;31.98;;;17.50;;
70592;SDS011;58294;42.988;20.338;2023-06-24T13:19:32;29.58;;;19.05;;
70592;SDS011;58294;42.988;20.338;2023-06-24T13:21:58;26.75;;;17.63;;
70592;SDS011;58294;42.988;20.338;2023-06-24T13:24:24;25.88;;;17.17;;
70592;SDS011;58294;42.988;20.338;2023-06-24T13:26:50;19.52;;;16.88;;
70592;SDS011;58294;42.988;20.338;2023-06-24T13:29:17;33.42;;;18.15;;
70592;SDS011;58294;42.988;20.338;2023-06-24T13:31:45;25.50;;;18.30;;
70592;SDS011;58294;42.988;20.338;2023-06-24T13:34:11;22.73;;;18.73;;
70592;SDS011;58294;42.988;20.338;2023-06-24T13:36:37;32.75;;;21.10;;
70592;SDS011;58294;42.988;20.338;2023-06-24T13:39:04;18.95;;;16.02;;
70592;SDS011;58294;42.988;20.338;2023-06-24T13:41:30;25.02;;;18.80;;
70592;SDS011;58294;42.988;20.338;2023-06-24T13:43:58;24.83;;;15.98;;
70592;SDS011;58294;42.988;20.338;2023-06-24T13:46:25;25.88;;;17.17;;
70592;SDS011;58294;42.988;20.338;2023-06-24T13:48:51;21.83;;;17.10;;
70592;SDS011;58294;42.988;20.338;2023-06-24T13:51:20;19.92;;;16.92;;
70592;SDS011;58294;42.988;20.338;2023-06-24T13:53:47;27.60;;;14.88;;
70592;SDS011;58294;42.988;20.338;2023-06-24T13:56:15;17.40;;;12.90;;
70592;SDS011;58294;42.988;20.338;2023-06-24T13:58:42;17.98;;;14.13;;
70592;SDS011;58294;42.988;20.338;2023-06-24T14:01:08;18.83;;;16.02;;
70592;SDS011;58294;42.988;20.338;2023-06-24T14:03:34;17.95;;;14.30;;
70592;SDS011;58294;42.988;20.338;2023-06-24T14:05:59;23.63;;;15.13;;
70592;SDS011;58294;42.988;20.338;2023-06-24T14:08:27;22.30;;;14.93;;
70592;SDS011;58294;42.988;20.338;2023-06-24T14:10:54;20.67;;;13.70;;
70592;SDS011;58294;42.988;20.338;2023-06-24T14:13:20;20.55;;;13.45;;
70592;SDS011;58294;42.988;20.338;2023-06-24T14:15:46;18.35;;;14.13;;
70592;SDS011;58294;42.988;20.338;2023-06-24T14:18:12;15.55;;;13.38;;
70592;SDS011;58294;42.988;20.338;2023-06-24T14:20:38;17.55;;;14.55;;
70592;SDS011;58294;42.988;20.338;2023-06-24T14:23:04;17.23;;;14.10;;
70592;SDS011;58294;42.988;20.338;2023-06-24T14:25:30;15.25;;;13.52;;
70592;SDS011;58294;42.988;20.338;2023-06-24T14:27:56;16.92;;;12.45;;
70592;SDS011;58294;42.988;20.338;2023-06-24T14:30:22;17.25;;;13.57;;
70592;SDS011;58294;42.988;20.338;2023-06-24T14:32:48;17.35;;;14.13;;
70592;SDS011;58294;42.988;20.338;2023-06-24T14:35:14;20.38;;;14.38;;